createdAt,value
2018-04-25T00:01:21.805Z,97526.78
2018-04-25T00:03:49.242Z,97524.48
2018-04-25T00:06:16.776Z,97523.37
2018-04-25T00:08:44.220Z,97519.15
2018-04-25T00:11:11.719Z,97521.86
2018-04-25T00:13:39.196Z,97519.83
2018-04-25T00:16:06.656Z,97515.22
2018-04-25T00:18:34.151Z,97514.22
2018-04-25T00:21:01.664Z,97516.45
2018-04-25T00:23:29.278Z,97515.30
2018-04-25T00:25:56.778Z,97515.81
2018-04-25T00:28:24.231Z,97509.16
2018-04-25T00:30:51.713Z,97510.80
2018-04-25T00:33:19.169Z,97504.78
2018-04-25T00:35:46.626Z,97512.27
2018-04-25T00:38:14.103Z,97504.06
2018-04-25T00:40:41.559Z,97510.39
2018-04-25T00:43:09.150Z,97509.98
2018-04-25T00:45:36.689Z,97504.81
2018-04-25T00:48:04.175Z,97503.27
2018-04-25T00:50:31.654Z,97502.11
2018-04-25T00:52:59.132Z,97492.84
2018-04-25T00:55:26.607Z,97493.00
2018-04-25T00:57:54.067Z,97492.52
2018-04-25T01:00:21.544Z,97489.17
2018-04-25T01:02:48.996Z,97491.72
2018-04-25T01:05:16.495Z,97493.55
2018-04-25T01:07:44.518Z,97485.78
2018-04-25T01:10:12.724Z,97486.25
2018-04-25T01:12:40.161Z,97484.67
2018-04-25T01:15:07.726Z,97483.65
2018-04-25T01:17:35.223Z,97479.09
2018-04-25T01:20:02.892Z,97476.16
2018-04-25T01:22:30.426Z,97481.72
2018-04-25T01:24:59.801Z,97476.61
2018-04-25T01:27:27.360Z,97476.22
2018-04-25T01:29:55.761Z,97479.41
2018-04-25T01:32:23.735Z,97467.58
2018-04-25T01:34:56.236Z,97467.16
2018-04-25T01:37:35.418Z,97462.23
2018-04-25T01:40:03.738Z,97470.58
2018-04-25T01:45:46.656Z,97474.00
2018-04-25T01:48:26.751Z,97465.95
2018-04-25T01:50:58.612Z,97469.19
2018-04-25T01:53:38.539Z,97463.48
2018-04-25T01:56:17.746Z,97464.44
2018-04-25T01:58:56.887Z,97455.77
2018-04-25T02:01:23.814Z,97454.02
2018-04-25T02:04:00.697Z,97454.98
2018-04-25T02:06:28.199Z,97452.60
2018-04-25T02:08:55.665Z,97448.71
2018-04-25T02:11:23.119Z,97447.52
2018-04-25T02:13:50.584Z,97443.70
2018-04-25T02:16:18.052Z,97444.75
2018-04-25T02:18:45.518Z,97446.00
2018-04-25T02:21:13.031Z,97441.16
2018-04-25T02:23:40.584Z,97438.85
2018-04-25T02:26:08.124Z,97432.34
2018-04-25T02:28:35.693Z,97434.40
2018-04-25T02:31:03.131Z,97437.19
2018-04-25T02:33:30.675Z,97435.75
2018-04-25T02:35:58.129Z,97435.53
2018-04-25T02:38:25.581Z,97434.48
2018-04-25T02:40:53.036Z,97430.59
2018-04-25T02:43:20.499Z,97433.45
2018-04-25T02:45:48.003Z,97430.91
2018-04-25T02:48:15.448Z,97440.36
2018-04-25T02:50:42.947Z,97435.98
2018-04-25T02:53:10.392Z,97436.22
2018-04-25T02:55:37.875Z,97435.67
2018-04-25T02:58:05.331Z,97436.30
2018-04-25T03:00:32.795Z,97430.42
2018-04-25T03:03:00.255Z,97432.72
2018-04-25T03:05:27.813Z,97421.06
2018-04-25T03:07:55.259Z,97424.92
2018-04-25T03:10:22.727Z,97423.58
2018-04-25T03:12:50.217Z,97419.59
2018-04-25T03:15:17.667Z,97415.39
2018-04-25T03:17:45.160Z,97422.07
2018-04-25T03:20:12.589Z,97421.25
2018-04-25T03:22:40.414Z,97418.06
2018-04-25T03:25:07.754Z,97425.55
2018-04-25T03:27:35.230Z,97410.20
2018-04-25T03:30:02.689Z,97414.73
2018-04-25T03:32:30.167Z,97412.83
2018-04-25T03:34:57.636Z,97412.03
2018-04-25T03:37:25.077Z,97411.89
2018-04-25T03:39:52.555Z,97418.39
2018-04-25T03:42:20.016Z,97419.58
2018-04-25T03:44:47.496Z,97415.29
2018-04-25T03:47:14.930Z,97418.60
2018-04-25T03:49:42.452Z,97422.84
2018-04-25T03:52:09.901Z,97424.98
2018-04-25T03:54:37.393Z,97428.42
2018-04-25T03:57:04.860Z,97434.46
2018-04-25T03:59:32.300Z,97429.21
2018-04-25T04:02:00.254Z,97428.47
2018-04-25T04:04:27.791Z,97420.52
2018-04-25T04:06:55.371Z,97418.41
2018-04-25T04:09:22.897Z,97421.20
2018-04-25T04:11:50.519Z,97423.34
2018-04-25T04:14:17.996Z,97421.95
2018-04-25T04:16:45.476Z,97416.29
2018-04-25T04:19:12.933Z,97412.96
2018-04-25T04:21:40.514Z,97411.34
2018-04-25T04:24:07.989Z,97407.19
2018-04-25T04:26:35.485Z,97407.98
2018-04-25T04:29:02.964Z,97397.34
2018-04-25T04:31:30.442Z,97401.16
2018-04-25T04:33:57.961Z,97399.58
2018-04-25T04:36:25.483Z,97394.24
2018-04-25T04:38:52.944Z,97398.78
2018-04-25T04:41:20.410Z,97399.99
2018-04-25T04:43:47.941Z,97403.75
2018-04-25T04:46:15.459Z,97398.50
2018-04-25T04:48:42.914Z,97398.05
2018-04-25T04:51:10.400Z,97403.07
2018-04-25T04:53:37.891Z,97405.46
2018-04-25T04:56:05.340Z,97406.97
2018-04-25T04:58:32.839Z,97394.26
2018-04-25T05:01:00.347Z,97399.02
2018-04-25T05:03:27.972Z,97395.38
2018-04-25T05:05:55.418Z,97402.45
2018-04-25T05:08:22.970Z,97403.64
2018-04-25T05:10:50.554Z,97396.23
2018-04-25T05:13:18.025Z,97397.20
2018-04-25T05:15:45.465Z,97395.84
2018-04-25T05:18:13.041Z,97387.91
2018-04-25T05:20:40.513Z,97382.62
2018-04-25T05:23:07.993Z,97398.38
2018-04-25T05:25:36.391Z,97397.77
2018-04-25T05:28:03.901Z,97402.36
2018-04-25T05:30:31.527Z,97407.06
2018-04-25T05:32:59.172Z,97404.10
2018-04-25T05:35:27.141Z,97404.59
2018-04-25T05:37:54.621Z,97405.59
2018-04-25T05:40:22.256Z,97414.98
2018-04-25T05:42:49.762Z,97415.11
2018-04-25T05:45:17.274Z,97410.77
2018-04-25T05:47:44.723Z,97408.33
2018-04-25T05:50:12.196Z,97404.81
2018-04-25T05:52:39.738Z,97400.77
2018-04-25T05:55:07.310Z,97395.71
2018-04-25T05:57:34.793Z,97398.81
2018-04-25T06:00:02.284Z,97397.44
2018-04-25T06:02:29.766Z,97402.30
2018-04-25T06:04:57.214Z,97406.09
2018-04-25T06:07:24.719Z,97401.86
2018-04-25T06:09:52.158Z,97407.22
2018-04-25T06:12:19.744Z,97407.17
2018-04-25T06:14:47.564Z,97406.94
2018-04-25T06:17:15.037Z,97407.79
2018-04-25T06:19:42.491Z,97403.55
2018-04-25T06:22:09.964Z,97397.41
2018-04-25T06:24:37.551Z,97398.97
2018-04-25T06:27:05.109Z,97407.61
2018-04-25T06:29:32.768Z,97405.09
2018-04-25T06:32:00.225Z,97409.59
2018-04-25T06:34:27.703Z,97398.20
2018-04-25T06:36:55.244Z,97401.95
2018-04-25T06:39:22.978Z,97411.45
2018-04-25T06:41:50.962Z,97400.27
2018-04-25T06:44:18.516Z,97401.81
2018-04-25T06:46:45.978Z,97407.00
2018-04-25T06:49:13.464Z,97400.56
2018-04-25T06:51:40.927Z,97398.41
2018-04-25T06:54:09.319Z,97405.42
2018-04-25T06:56:36.898Z,97403.30
2018-04-25T06:59:04.391Z,97402.92
2018-04-25T07:01:31.849Z,97396.40
2018-04-25T07:03:59.320Z,97395.09
2018-04-25T07:06:26.813Z,97401.43
2018-04-25T07:08:54.279Z,97390.45
2018-04-25T07:11:21.777Z,97391.51
2018-04-25T07:13:49.277Z,97394.91
2018-04-25T07:16:16.742Z,97405.54
2018-04-25T07:18:44.241Z,97394.70
2018-04-25T07:21:11.738Z,97394.98
2018-04-25T07:23:39.215Z,97393.66
2018-04-25T07:26:06.680Z,97404.05
2018-04-25T07:28:34.146Z,97401.21
2018-04-25T07:31:01.622Z,97400.41
2018-04-25T07:33:29.075Z,97408.41
2018-04-25T07:35:56.527Z,97405.80
2018-04-25T07:38:23.974Z,97410.92
2018-04-25T07:40:51.428Z,97412.67
2018-04-25T07:43:18.879Z,97408.20
2018-04-25T07:45:46.340Z,97401.58
2018-04-25T07:48:13.827Z,97397.86
2018-04-25T07:50:43.135Z,97394.34
2018-04-25T07:53:10.601Z,97392.14
2018-04-25T07:55:38.126Z,97397.65
2018-04-25T07:58:05.584Z,97389.16
2018-04-25T08:00:33.022Z,97390.34
2018-04-25T08:03:00.531Z,97390.06
2018-04-25T08:05:27.979Z,97391.52
2018-04-25T08:07:55.427Z,97395.84
2018-04-25T08:10:22.918Z,97400.94
2018-04-25T08:13:02.271Z,97400.92
2018-04-25T08:15:41.464Z,97394.48
2018-04-25T08:18:20.617Z,97395.09
2018-04-25T08:23:52.990Z,97393.97
2018-04-25T08:26:20.461Z,97396.55
2018-04-25T08:28:47.895Z,97382.14
2018-04-25T08:31:15.386Z,97388.81
2018-04-25T08:33:42.934Z,97379.47
2018-04-25T08:36:10.413Z,97383.36
2018-04-25T08:38:37.878Z,97370.14
2018-04-25T08:41:05.374Z,97374.44
2018-04-25T08:43:32.888Z,97372.09
2018-04-25T08:46:00.359Z,97382.99
2018-04-25T08:48:27.818Z,97386.73
2018-04-25T08:50:55.297Z,97382.11
2018-04-25T08:53:22.753Z,97398.03
2018-04-25T08:55:50.472Z,97388.75
2018-04-25T08:58:17.939Z,97389.02
2018-04-25T09:00:45.421Z,97393.80
2018-04-25T09:03:12.883Z,97400.47
2018-04-25T09:05:40.339Z,97390.17
2018-04-25T09:08:07.808Z,97389.33
2018-04-25T09:10:35.339Z,97388.52
2018-04-25T09:13:02.973Z,97378.19
2018-04-25T09:15:30.609Z,97384.02
2018-04-25T09:17:58.216Z,97385.78
2018-04-25T09:20:25.808Z,97385.73
2018-04-25T09:22:53.392Z,97385.99
2018-04-25T09:25:20.899Z,97391.17
2018-04-25T09:27:48.344Z,97391.91
2018-04-25T09:30:15.828Z,97384.28
2018-04-25T09:32:43.283Z,97379.19
2018-04-25T09:35:10.749Z,97382.31
2018-04-25T09:37:38.189Z,97381.92
2018-04-25T09:40:05.677Z,97379.33
2018-04-25T09:42:33.196Z,97380.94
2018-04-25T09:45:00.742Z,97373.64
2018-04-25T09:47:28.190Z,97378.07
2018-04-25T09:49:55.656Z,97384.38
2018-04-25T09:52:23.114Z,97389.84
2018-04-25T09:54:50.595Z,97385.75
2018-04-25T09:57:18.045Z,97387.05
2018-04-25T09:59:45.494Z,97382.77
2018-04-25T10:02:18.679Z,97380.39
2018-04-25T10:04:46.310Z,97392.29
2018-04-25T10:07:13.892Z,97378.44
2018-04-25T10:09:41.343Z,97383.88
2018-04-25T10:12:08.819Z,97385.19
2018-04-25T10:14:36.269Z,97366.66
2018-04-25T10:17:03.793Z,97378.13
2018-04-25T10:19:31.211Z,97367.85
2018-04-25T10:21:58.707Z,97363.67
2018-04-25T10:24:26.415Z,97365.14
2018-04-25T10:26:53.884Z,97368.65
2018-04-25T10:29:21.353Z,97371.58
2018-04-25T10:31:48.853Z,97369.55
2018-04-25T10:34:16.340Z,97392.88
2018-04-25T10:36:44.744Z,97379.56
2018-04-25T10:39:12.231Z,97375.27
2018-04-25T10:41:39.688Z,97379.55
2018-04-25T10:44:07.277Z,97379.47
2018-04-25T10:46:34.659Z,97374.63
2018-04-25T10:49:02.171Z,97375.34
2018-04-25T10:51:29.851Z,97373.05
2018-04-25T10:53:57.301Z,97362.04
2018-04-25T10:56:24.759Z,97367.59
2018-04-25T10:58:52.324Z,97368.22
2018-04-25T11:01:19.929Z,97372.22
2018-04-25T11:03:47.508Z,97366.07
2018-04-25T11:06:14.995Z,97362.58
2018-04-25T11:08:43.196Z,97355.69
2018-04-25T11:11:10.656Z,97363.23
2018-04-25T11:13:38.105Z,97368.72
2018-04-25T11:16:05.972Z,97352.08
2018-04-25T11:18:33.478Z,97351.23
2018-04-25T11:21:00.967Z,97353.48
2018-04-25T11:23:28.400Z,97355.80
2018-04-25T11:25:55.978Z,97352.48
2018-04-25T11:28:23.477Z,97361.00
2018-04-25T11:30:51.242Z,97361.38
2018-04-25T11:33:18.696Z,97365.76
2018-04-25T11:35:46.297Z,97362.38
2018-04-25T11:38:13.770Z,97359.42
2018-04-25T11:40:41.239Z,97359.89
2018-04-25T11:43:08.828Z,97361.28
2018-04-25T11:45:36.291Z,97367.06
2018-04-25T11:48:03.860Z,97362.27
2018-04-25T11:50:31.268Z,97361.63
2018-04-25T11:52:58.762Z,97375.56
2018-04-25T11:55:26.251Z,97374.33
2018-04-25T11:57:53.684Z,97376.25
2018-04-25T12:00:21.137Z,97382.09
2018-04-25T12:02:48.684Z,97384.78
2018-04-25T12:05:16.078Z,97384.41
2018-04-25T12:07:43.537Z,97390.96
2018-04-25T12:10:11.403Z,97380.02
2018-04-25T12:12:38.860Z,97383.61
2018-04-25T12:15:06.352Z,97385.33
2018-04-25T12:17:33.930Z,97389.45
2018-04-25T12:20:01.395Z,97389.09
2018-04-25T12:22:28.821Z,97392.02
2018-04-25T12:24:56.295Z,97391.64
2018-04-25T12:27:23.766Z,97389.90
2018-04-25T12:29:51.264Z,97388.69
2018-04-25T12:32:18.713Z,97399.38
2018-04-25T12:34:46.205Z,97390.95
2018-04-25T12:37:13.693Z,97398.44
2018-04-25T12:39:41.125Z,97384.86
2018-04-25T12:42:09.429Z,97389.65
2018-04-25T12:44:36.916Z,97401.78
2018-04-25T12:47:04.372Z,97396.39
2018-04-25T12:49:31.853Z,97400.86
2018-04-25T12:51:59.379Z,97399.36
2018-04-25T12:54:26.977Z,97397.81
2018-04-25T12:56:54.433Z,97386.33
2018-04-25T12:59:21.876Z,97397.73
2018-04-25T13:01:49.348Z,97372.16
2018-04-25T13:04:16.821Z,97375.42
2018-04-25T13:06:44.302Z,97380.86
2018-04-25T13:09:11.753Z,97379.12
2018-04-25T13:11:39.221Z,97382.33
2018-04-25T13:14:06.786Z,97371.38
2018-04-25T13:16:34.331Z,97372.46
2018-04-25T13:19:01.768Z,97385.73
2018-04-25T13:21:29.242Z,97372.30
2018-04-25T13:23:56.701Z,97376.38
2018-04-25T13:26:24.145Z,97373.86
2018-04-25T13:28:51.680Z,97374.23
2018-04-25T13:31:19.043Z,97371.42
2018-04-25T13:33:46.553Z,97377.52
2018-04-25T13:36:14.038Z,97381.48
2018-04-25T13:38:41.518Z,97385.81
2018-04-25T13:41:08.992Z,97384.62
2018-04-25T13:43:36.442Z,97387.80
2018-04-25T13:46:03.893Z,97394.04
2018-04-25T13:48:31.364Z,97390.67
2018-04-25T13:50:58.801Z,97392.50
2018-04-25T13:53:26.278Z,97387.78
2018-04-25T13:55:53.811Z,97395.84
2018-04-25T13:58:21.272Z,97383.52
2018-04-25T14:00:48.835Z,97384.88
2018-04-25T14:03:16.278Z,97385.59
2018-04-25T14:05:43.740Z,97381.09
2018-04-25T14:08:11.181Z,97383.94
2018-04-25T14:10:38.666Z,97380.09
2018-04-25T14:13:06.188Z,97384.06
2018-04-25T14:15:33.636Z,97381.86
2018-04-25T14:18:01.105Z,97373.00
2018-04-25T14:20:28.592Z,97383.13
2018-04-25T14:22:56.029Z,97379.76
2018-04-25T14:25:23.515Z,97383.68
2018-04-25T14:27:50.972Z,97387.16
2018-04-25T14:30:18.551Z,97390.73
2018-04-25T14:32:46.190Z,97384.45
2018-04-25T14:35:13.734Z,97392.83
2018-04-25T14:37:41.237Z,97391.25
2018-04-25T14:40:08.728Z,97400.73
2018-04-25T14:42:36.220Z,97410.80
2018-04-25T14:45:03.846Z,97401.74
2018-04-25T14:47:31.415Z,97394.45
2018-04-25T14:49:59.004Z,97402.72
2018-04-25T14:52:26.464Z,97400.95
2018-04-25T14:54:54.121Z,97399.05
2018-04-25T14:57:21.555Z,97403.38
2018-04-25T14:59:49.143Z,97398.92
2018-04-25T15:02:17.469Z,97397.52
2018-04-25T15:04:44.935Z,97396.75
2018-04-25T15:07:12.386Z,97395.45
2018-04-25T15:09:39.937Z,97389.45
2018-04-25T15:12:07.441Z,97391.92
2018-04-25T15:14:35.011Z,97390.76
2018-04-25T15:17:02.504Z,97399.11
2018-04-25T15:19:29.994Z,97388.89
2018-04-25T15:21:57.471Z,97396.78
2018-04-25T15:24:24.960Z,97393.20
2018-04-25T15:26:52.402Z,97395.41
2018-04-25T15:29:19.905Z,97398.30
2018-04-25T15:31:47.401Z,97397.43
2018-04-25T15:34:15.187Z,97391.48
2018-04-25T15:36:42.662Z,97398.99
2018-04-25T15:39:10.293Z,97397.28
2018-04-25T15:41:38.046Z,97397.39
2018-04-25T15:44:05.930Z,97392.14
2018-04-25T15:46:33.491Z,97392.02
2018-04-25T15:49:01.167Z,97388.51
2018-04-25T15:51:29.694Z,97385.57
2018-04-25T15:53:57.192Z,97377.97
2018-04-25T15:56:24.763Z,97388.33
2018-04-25T15:58:52.380Z,97378.95
2018-04-25T16:01:19.933Z,97384.98
2018-04-25T16:03:47.401Z,97384.77
2018-04-25T16:06:14.896Z,97375.73
2018-04-25T16:08:42.365Z,97378.92
2018-04-25T16:11:09.887Z,97374.09
2018-04-25T16:13:37.308Z,97376.28
2018-04-25T16:16:04.795Z,97377.04
2018-04-25T16:18:32.765Z,97378.31
2018-04-25T16:21:00.252Z,97377.94
2018-04-25T16:23:27.775Z,97367.59
2018-04-25T16:25:55.272Z,97373.83
2018-04-25T16:28:22.800Z,97374.48
2018-04-25T16:30:50.276Z,97376.48
2018-04-25T16:33:17.756Z,97376.55
2018-04-25T16:35:45.274Z,97374.22
2018-04-25T16:38:12.842Z,97371.28
2018-04-25T16:40:40.488Z,97366.52
2018-04-25T16:43:08.151Z,97373.12
2018-04-25T16:45:35.722Z,97366.95
2018-04-25T16:48:03.278Z,97361.41
2018-04-25T16:50:30.894Z,97357.59
2018-04-25T16:52:58.377Z,97357.78
2018-04-25T16:55:26.107Z,97359.98
2018-04-25T16:57:53.697Z,97362.23
2018-04-25T17:00:23.189Z,97366.97
2018-04-25T17:02:50.656Z,97356.48
2018-04-25T17:05:18.123Z,97361.76
2018-04-25T17:07:45.600Z,97360.23
2018-04-25T17:10:13.114Z,97363.27
2018-04-25T17:12:40.606Z,97357.67
2018-04-25T17:15:08.113Z,97364.78
2018-04-25T17:17:35.677Z,97361.90
2018-04-25T17:20:03.278Z,97374.72
2018-04-25T17:22:30.776Z,97379.21
2018-04-25T17:24:58.644Z,97379.94
2018-04-25T17:27:26.134Z,97378.16
2018-04-25T17:29:53.704Z,97378.14
2018-04-25T17:32:21.185Z,97383.69
2018-04-25T17:34:48.862Z,97376.28
2018-04-25T17:37:16.371Z,97373.59
2018-04-25T17:39:43.831Z,97377.89
2018-04-25T17:42:11.333Z,97373.28
2018-04-25T17:44:38.946Z,97375.93
2018-04-25T17:47:06.547Z,97378.47
2018-04-25T17:49:34.150Z,97383.23
2018-04-25T17:52:01.785Z,97389.29
2018-04-25T17:54:29.355Z,97382.20
2018-04-25T17:56:57.019Z,97394.95
2018-04-25T17:59:24.466Z,97393.55
2018-04-25T18:01:51.926Z,97400.33
2018-04-25T18:04:19.444Z,97401.73
2018-04-25T18:06:46.966Z,97403.41
2018-04-25T18:09:14.719Z,97401.70
2018-04-25T18:11:42.179Z,97404.02
2018-04-25T18:14:09.717Z,97403.54
2018-04-25T18:16:37.186Z,97410.05
2018-04-25T18:19:05.388Z,97411.41
2018-04-25T18:21:32.840Z,97411.64
2018-04-25T18:24:00.417Z,97414.36
2018-04-25T18:26:27.882Z,97428.41
2018-04-25T18:28:55.579Z,97421.53
2018-04-25T18:31:23.116Z,97428.69
2018-04-25T18:33:50.623Z,97427.59
2018-04-25T18:36:18.140Z,97423.16
2018-04-25T18:38:45.791Z,97429.18
2018-04-25T18:41:13.268Z,97433.63
2018-04-25T18:43:40.780Z,97438.12
2018-04-25T18:46:08.226Z,97444.47
2018-04-25T18:48:35.707Z,97446.00
2018-04-25T18:51:03.223Z,97447.27
2018-04-25T18:53:30.698Z,97460.59
2018-04-25T18:55:58.151Z,97457.70
2018-04-25T18:58:25.620Z,97469.31
2018-04-25T19:00:53.108Z,97476.07
2018-04-25T19:03:20.567Z,97485.89
2018-04-25T19:05:48.054Z,97484.13
2018-04-25T19:08:15.541Z,97488.27
2018-04-25T19:10:42.965Z,97495.83
2018-04-25T19:13:10.393Z,97489.64
2018-04-25T19:15:37.918Z,97492.77
2018-04-25T19:18:05.383Z,97496.16
2018-04-25T19:20:32.904Z,97497.86
2018-04-25T19:23:00.404Z,97498.93
2018-04-25T19:25:27.856Z,97502.14
2018-04-25T19:27:55.306Z,97499.77
2018-04-25T19:30:22.790Z,97511.19
2018-04-25T19:32:50.232Z,97516.75
2018-04-25T19:35:17.735Z,97520.39
2018-04-25T19:37:45.274Z,97517.89
2018-04-25T19:40:12.752Z,97523.45
2018-04-25T19:42:40.217Z,97528.94
2018-04-25T19:45:09.043Z,97531.34
2018-04-25T19:47:36.603Z,97529.64
2018-04-25T19:50:04.040Z,97536.49
2018-04-25T19:52:31.507Z,97540.91
2018-04-25T19:54:58.968Z,97538.28
2018-04-25T19:57:26.847Z,97537.61
2018-04-25T19:59:54.303Z,97545.01
2018-04-25T20:02:21.771Z,97548.53
2018-04-25T20:04:49.218Z,97557.89
2018-04-25T20:07:16.679Z,97558.88
2018-04-25T20:09:44.141Z,97561.98
2018-04-25T20:12:11.584Z,97560.69
2018-04-25T20:14:39.066Z,97566.75
2018-04-25T20:17:07.401Z,97565.16
2018-04-25T20:19:34.940Z,97562.23
2018-04-25T20:22:02.412Z,97557.41
2018-04-25T20:24:29.956Z,97563.84
2018-04-25T20:26:57.436Z,97578.15
2018-04-25T20:29:24.937Z,97574.80
2018-04-25T20:31:52.446Z,97585.46
2018-04-25T20:34:19.956Z,97584.45
2018-04-25T20:36:47.453Z,97579.58
2018-04-25T20:39:14.944Z,97594.81
2018-04-25T20:41:42.464Z,97594.98
2018-04-25T20:44:10.108Z,97595.27
2018-04-25T20:46:37.627Z,97595.05
2018-04-25T20:49:05.100Z,97595.45
2018-04-25T20:51:34.108Z,97594.09
2018-04-25T20:54:01.531Z,97599.96
2018-04-25T20:56:29.041Z,97595.29
2018-04-25T20:58:56.634Z,97599.66
2018-04-25T21:01:24.123Z,97606.35
2018-04-25T21:03:51.763Z,97613.14
2018-04-25T21:06:19.252Z,97610.59
2018-04-25T21:08:46.724Z,97602.91
2018-04-25T21:11:14.280Z,97608.25
2018-04-25T21:13:41.766Z,97611.99
2018-04-25T21:16:09.228Z,97609.61
2018-04-25T21:18:36.935Z,97604.60
2018-04-25T21:21:04.378Z,97598.44
2018-04-25T21:23:32.194Z,97600.81
2018-04-25T21:25:59.714Z,97601.83
2018-04-25T21:28:27.246Z,97601.27
2018-04-25T21:30:55.469Z,97607.31
2018-04-25T21:33:22.921Z,97609.23
2018-04-25T21:35:50.411Z,97611.09
2018-04-25T21:38:17.873Z,97610.27
2018-04-25T21:40:45.489Z,97619.30
2018-04-25T21:43:13.071Z,97624.47
2018-04-25T21:45:40.782Z,97618.65
2018-04-25T21:48:08.243Z,97627.80
2018-04-25T21:50:35.711Z,97637.53
2018-04-25T21:53:03.193Z,97642.30
2018-04-25T21:55:30.680Z,97646.62
2018-04-25T21:57:58.188Z,97647.95
2018-04-25T22:00:25.595Z,97648.22
2018-04-25T22:02:53.083Z,97650.06
2018-04-25T22:05:20.533Z,97642.61
2018-04-25T22:07:48.040Z,97652.63
2018-04-25T22:10:15.539Z,97638.68
2018-04-25T22:12:44.056Z,97652.47
2018-04-25T22:15:11.575Z,97651.06
2018-04-25T22:17:39.339Z,97665.11
2018-04-25T22:20:06.813Z,97663.21
2018-04-25T22:22:34.686Z,97666.95
2018-04-25T22:25:05.707Z,97671.28
2018-04-25T22:27:33.749Z,97677.42
2018-04-25T22:30:01.218Z,97674.50
2018-04-25T22:32:28.679Z,97680.94
2018-04-25T22:34:56.204Z,97681.23
2018-04-25T22:37:23.643Z,97689.42
2018-04-25T22:39:51.090Z,97696.03
2018-04-25T22:42:18.556Z,97701.08
2018-04-25T22:44:46.418Z,97703.19
2018-04-25T22:47:13.848Z,97718.59
2018-04-25T22:49:41.334Z,97714.54
2018-04-25T22:52:08.780Z,97720.56
2018-04-25T22:54:37.213Z,97722.45
2018-04-25T23:02:28.797Z,97723.50
2018-04-25T23:07:49.276Z,97722.09
2018-04-25T23:10:16.797Z,97730.16
2018-04-25T23:12:44.264Z,97728.80
2018-04-25T23:15:11.768Z,97733.66
2018-04-25T23:17:39.250Z,97727.86
2018-04-25T23:20:06.706Z,97729.36
2018-04-25T23:22:34.245Z,97719.58
2018-04-25T23:25:01.805Z,97719.53
2018-04-25T23:27:29.353Z,97722.02
2018-04-25T23:29:56.799Z,97717.41
2018-04-25T23:32:24.377Z,97709.13
2018-04-25T23:34:51.932Z,97713.63
2018-04-25T23:37:19.387Z,97715.20
2018-04-25T23:39:46.886Z,97711.07
2018-04-25T23:42:14.626Z,97706.73
2018-04-25T23:44:42.060Z,97707.50
2018-04-25T23:49:36.599Z,97696.64
2018-04-25T23:52:04.138Z,97701.96
2018-04-25T23:54:32.548Z,97701.08
2018-04-25T23:57:00.022Z,97706.48
2018-04-25T23:59:27.601Z,97707.20
